Time,TemperatureF,DewpointF,PressureIn,WindDirection,WindDirectionDegrees,WindSpeedMPH,WindSpeedGustMPH,Humidity,HourlyPrecipIn,Conditions,Clouds,dailyrainin,SoftwareType,DateUTC
2013-09-07 00:10:00,68.7,63.7,29.94,SSE,157,1.1,-999.0,84,-99.99,,,0.00,Acu-Link.com,2013-09-07 05:10:00,
2013-09-07 00:26:00,68.5,63.5,29.94,South,180,0.0,-999.0,84,-99.99,,,0.00,Acu-Link.com,2013-09-07 05:26:00,
2013-09-07 00:41:00,68.0,63.0,29.93,South,180,0.0,-999.0,84,-99.99,,,0.00,Acu-Link.com,2013-09-07 05:41:00,
2013-09-07 00:56:00,67.5,63.2,29.94,South,180,0.0,-999.0,86,-99.99,,,0.00,Acu-Link.com,2013-09-07 05:56:00,
2013-09-07 01:11:00,67.8,63.5,29.93,SSE,157,2.2,-999.0,86,-99.99,,,0.00,Acu-Link.com,2013-09-07 06:11:00,
2013-09-07 01:27:00,67.8,63.5,29.93,SE,135,1.1,-999.0,86,-99.99,,,0.00,Acu-Link.com,2013-09-07 06:27:00,
2013-09-07 01:42:00,68.2,63.5,29.93,SSE,157,1.7,-999.0,85,-99.99,,,0.00,Acu-Link.com,2013-09-07 06:42:00,
2013-09-07 01:57:00,68.5,63.8,29.92,South,180,2.2,-999.0,85,-99.99,,,0.00,Acu-Link.com,2013-09-07 06:57:00,
2013-09-07 02:12:00,68.5,63.5,29.92,SE,135,2.7,-999.0,84,-99.99,,,0.00,Acu-Link.com,2013-09-07 07:12:00,
2013-09-07 02:28:00,68.5,63.5,29.92,South,180,1.7,-999.0,84,-99.99,,,0.00,Acu-Link.com,2013-09-07 07:28:00,
2013-09-07 02:43:00,68.4,63.4,29.92,SSE,157,2.7,-999.0,84,-99.99,,,0.00,Acu-Link.com,2013-09-07 07:43:00,
2013-09-07 02:58:00,68.2,63.2,29.92,South,180,1.1,-999.0,84,-99.99,,,0.00,Acu-Link.com,2013-09-07 07:58:00,
2013-09-07 03:14:00,68.0,63.0,29.92,SE,135,2.2,-999.0,84,-99.99,,,0.00,Acu-Link.com,2013-09-07 08:14:00,
2013-09-07 03:29:00,68.0,63.0,29.92,SSE,157,1.7,-999.0,84,-99.99,,,0.00,Acu-Link.com,2013-09-07 08:29:00,
2013-09-07 03:44:00,67.6,62.6,29.92,SSE,157,1.7,-999.0,84,-99.99,,,0.00,Acu-Link.com,2013-09-07 08:44:00,
2013-09-07 04:00:00,67.3,62.6,29.92,South,180,2.7,-999.0,85,-99.99,,,0.00,Acu-Link.com,2013-09-07 09:00:00,
2013-09-07 04:15:00,66.9,62.2,29.92,South,180,1.1,-999.0,85,-99.99,,,0.00,Acu-Link.com,2013-09-07 09:15:00,
2013-09-07 04:30:00,66.7,62.0,29.92,SE,135,1.1,-999.0,85,-99.99,,,0.00,Acu-Link.com,2013-09-07 09:30:00,
2013-09-07 04:45:00,66.2,61.9,29.92,SSE,157,0.0,-999.0,86,-99.99,,,0.00,Acu-Link.com,2013-09-07 09:45:00,
2013-09-07 05:00:00,65.7,61.4,29.92,SSE,157,0.0,-999.0,86,-99.99,,,0.00,Acu-Link.com,2013-09-07 10:00:00,
2013-09-07 05:16:00,65.5,61.5,29.92,South,180,1.7,-999.0,87,-99.99,,,0.00,Acu-Link.com,2013-09-07 10:16:00,
2013-09-07 05:31:00,65.7,61.7,29.92,SSE,157,1.7,-999.0,87,-99.99,,,0.00,Acu-Link.com,2013-09-07 10:31:00,
2013-09-07 05:46:00,65.3,61.3,29.91,SSE,157,1.7,-999.0,87,-99.99,,,0.00,Acu-Link.com,2013-09-07 10:46:00,
2013-09-07 06:02:00,65.5,61.5,29.91,SSE,157,1.1,-999.0,87,-99.99,,,0.00,Acu-Link.com,2013-09-07 11:02:00,
2013-09-07 06:17:00,65.7,61.7,29.91,SE,135,2.2,-999.0,87,-99.99,,,0.00,Acu-Link.com,2013-09-07 11:17:00,
2013-09-07 06:32:00,65.8,61.8,29.91,SSE,157,1.7,-999.0,87,-99.99,,,0.00,Acu-Link.com,2013-09-07 11:32:00,
2013-09-07 06:48:00,66.4,62.1,29.91,SE,135,2.2,-999.0,86,-99.99,,,0.00,Acu-Link.com,2013-09-07 11:48:00,
2013-09-07 07:03:00,67.1,62.4,29.91,SSE,157,2.7,-999.0,85,-99.99,,,0.00,Acu-Link.com,2013-09-07 12:03:00,
2013-09-07 07:18:00,68.2,63.2,29.91,SSE,157,3.2,-999.0,84,-99.99,,,0.00,Acu-Link.com,2013-09-07 12:18:00,
2013-09-07 07:33:00,68.5,62.8,29.91,South,180,2.7,-999.0,82,-99.99,,,0.00,Acu-Link.com,2013-09-07 12:33:00,
2013-09-07 07:48:00,70.2,63.7,29.90,SE,135,4.7,-999.0,80,-99.99,,,0.00,Acu-Link.com,2013-09-07 12:48:00,
2013-09-07 08:03:00,71.4,64.2,29.89,ESE,112,4.7,-999.0,78,-99.99,,,0.00,Acu-Link.com,2013-09-07 13:03:00,
2013-09-07 08:19:00,70.7,63.5,29.90,SE,135,3.7,-999.0,78,-99.99,,,0.00,Acu-Link.com,2013-09-07 13:19:00,
2013-09-07 08:34:00,70.9,64.1,29.89,South,180,3.7,-999.0,79,-99.99,,,0.00,Acu-Link.com,2013-09-07 13:34:00,
2013-09-07 08:49:00,70.7,63.9,29.89,ESE,112,2.7,-999.0,79,-99.99,,,0.00,Acu-Link.com,2013-09-07 13:49:00,
2013-09-07 09:04:00,73.9,65.1,29.90,SSE,157,4.7,-999.0,74,-99.99,,,0.00,Acu-Link.com,2013-09-07 14:04:00,
2013-09-07 09:19:00,75.4,66.1,29.90,SE,135,2.7,-999.0,73,-99.99,,,0.00,Acu-Link.com,2013-09-07 14:19:00,
2013-09-07 09:35:00,78.1,67.5,29.89,ESE,112,3.2,-999.0,70,-99.99,,,0.00,Acu-Link.com,2013-09-07 14:35:00,
2013-09-07 09:50:00,79.7,68.6,29.89,SSE,157,1.7,-999.0,69,-99.99,,,0.00,Acu-Link.com,2013-09-07 14:50:00,
2013-09-07 10:05:00,80.4,68.4,29.89,NNW,337,2.2,-999.0,67,-99.99,,,0.00,Acu-Link.com,2013-09-07 15:05:00,
2013-09-07 10:21:00,81.5,69.0,29.88,SSE,157,1.7,-999.0,66,-99.99,,,0.00,Acu-Link.com,2013-09-07 15:21:00,
2013-09-07 10:36:00,81.9,68.0,29.88,SE,135,5.3,-999.0,63,-99.99,,,0.00,Acu-Link.com,2013-09-07 15:36:00,
2013-09-07 10:51:00,83.1,68.2,29.88,ESE,112,5.8,-999.0,61,-99.99,,,0.00,Acu-Link.com,2013-09-07 15:51:00,
2013-09-07 11:07:00,84.6,68.2,29.87,SE,135,7.8,-999.0,58,-99.99,,,0.00,Acu-Link.com,2013-09-07 16:07:00,
2013-09-07 11:22:00,86.2,69.1,29.87,ESE,112,3.2,-999.0,57,-99.99,,,0.00,Acu-Link.com,2013-09-07 16:22:00,
2013-09-07 11:37:00,86.2,67.6,29.86,ESE,112,4.7,-999.0,54,-99.99,,,0.00,Acu-Link.com,2013-09-07 16:37:00,
2013-09-07 11:52:00,86.9,67.1,29.85,SE,135,6.3,-999.0,52,-99.99,,,0.00,Acu-Link.com,2013-09-07 16:52:00,
2013-09-07 12:07:00,85.1,67.1,29.86,SSE,157,3.7,-999.0,55,-99.99,,,0.00,Acu-Link.com,2013-09-07 17:07:00,
2013-09-07 12:22:00,84.7,66.7,29.84,SE,135,2.7,-999.0,55,-99.99,,,0.00,Acu-Link.com,2013-09-07 17:22:00,
2013-09-07 12:38:00,83.3,65.4,29.84,SE,135,3.2,-999.0,55,-99.99,,,0.00,Acu-Link.com,2013-09-07 17:38:00,
2013-09-07 12:53:00,82.8,66.5,29.84,SSE,157,2.2,-999.0,58,-99.99,,,0.00,Acu-Link.com,2013-09-07 17:53:00,
2013-09-07 13:08:00,82.0,66.2,29.84,ESE,112,3.7,-999.0,59,-99.99,,,0.00,Acu-Link.com,2013-09-07 18:08:00,
2013-09-07 13:24:00,81.1,66.4,29.84,SE,135,4.7,-999.0,61,-99.99,,,0.00,Acu-Link.com,2013-09-07 18:24:00,
2013-09-07 13:39:00,81.0,66.3,29.85,SSE,157,2.2,-999.0,61,-99.99,,,0.00,Acu-Link.com,2013-09-07 18:39:00,
2013-09-07 13:54:00,80.4,66.6,29.84,SSE,157,2.2,-999.0,63,-99.99,,,0.00,Acu-Link.com,2013-09-07 18:54:00,
2013-09-07 14:09:00,80.2,66.9,29.87,NNW,337,3.7,-999.0,64,-99.99,,,0.00,Acu-Link.com,2013-09-07 19:09:00,
2013-09-07 14:24:00,79.2,67.3,29.86,North,0,2.2,-999.0,67,-99.99,,,0.00,Acu-Link.com,2013-09-07 19:24:00,
2013-09-07 14:39:00,79.5,67.6,29.85,NNE,22,2.7,-999.0,67,-99.99,,,0.00,Acu-Link.com,2013-09-07 19:39:00,
2013-09-07 14:55:00,79.3,67.8,29.84,West,270,1.1,-999.0,68,-99.99,,,0.00,Acu-Link.com,2013-09-07 19:55:00,
2013-09-07 15:10:00,79.2,68.1,29.85,NNE,22,3.2,-999.0,69,-99.99,,,0.00,Acu-Link.com,2013-09-07 20:10:00,
2013-09-07 15:25:00,77.2,68.3,29.85,North,0,3.2,-999.0,74,-99.99,,,0.00,Acu-Link.com,2013-09-07 20:25:00,
2013-09-07 15:41:00,76.5,68.0,29.83,ESE,112,3.2,-999.0,75,-99.99,,,0.00,Acu-Link.com,2013-09-07 20:41:00,
2013-09-07 15:56:00,77.5,68.1,29.84,NNW,337,2.7,-999.0,73,-99.99,,,0.00,Acu-Link.com,2013-09-07 20:56:00,
2013-09-07 16:11:00,76.3,67.4,29.84,South,180,2.2,-999.0,74,-99.99,,,0.00,Acu-Link.com,2013-09-07 21:11:00,
2013-09-07 16:27:00,76.3,68.2,29.83,ENE,67,2.2,-999.0,76,-99.99,,,0.00,Acu-Link.com,2013-09-07 21:27:00,
2013-09-07 16:42:00,77.5,68.1,29.83,SSE,157,4.7,-999.0,73,-99.99,,,0.00,Acu-Link.com,2013-09-07 21:42:00,
2013-09-07 16:57:00,78.1,68.3,29.83,SSW,202,2.2,-999.0,72,-99.99,,,0.00,Acu-Link.com,2013-09-07 21:57:00,
2013-09-07 17:12:00,78.1,67.9,29.83,NW,315,1.7,-999.0,71,-99.99,,,0.00,Acu-Link.com,2013-09-07 22:12:00,
2013-09-07 17:28:00,78.1,67.9,29.83,SSW,202,3.2,-999.0,71,-99.99,,,0.00,Acu-Link.com,2013-09-07 22:28:00,
2013-09-07 17:43:00,77.7,67.9,29.82,South,180,4.2,-999.0,72,-99.99,,,0.00,Acu-Link.com,2013-09-07 22:43:00,
2013-09-07 17:58:00,77.5,68.1,29.82,NE,45,0.0,-999.0,73,-99.99,,,0.00,Acu-Link.com,2013-09-07 22:58:00,
2013-09-07 18:14:00,77.2,68.3,29.82,South,180,1.7,-999.0,74,-99.99,,,0.00,Acu-Link.com,2013-09-07 23:14:00,
2013-09-07 18:29:00,76.5,68.4,29.82,SSE,157,1.7,-999.0,76,-99.99,,,0.00,Acu-Link.com,2013-09-07 23:29:00,
2013-09-07 18:44:00,75.4,68.0,29.82,South,180,0.0,-999.0,78,-99.99,,,0.00,Acu-Link.com,2013-09-07 23:44:00,
2013-09-07 19:00:00,75.0,68.0,29.82,SSE,157,2.7,-999.0,79,-99.99,,,0.00,Acu-Link.com,2013-09-08 00:00:00,
2013-09-07 19:15:00,74.5,67.9,29.82,SSE,157,1.7,-999.0,80,-99.99,,,0.00,Acu-Link.com,2013-09-08 00:15:00,
2013-09-07 19:30:00,73.9,68.0,29.82,SE,135,2.2,-999.0,82,-99.99,,,0.00,Acu-Link.com,2013-09-08 00:30:00,
2013-09-07 19:46:00,73.4,67.9,29.83,SE,135,1.7,-999.0,83,-99.99,,,0.00,Acu-Link.com,2013-09-08 00:46:00,
2013-09-07 20:01:00,73.6,68.5,29.83,SSE,157,2.2,-999.0,84,-99.99,,,0.00,Acu-Link.com,2013-09-08 01:01:00,
2013-09-07 20:17:00,74.1,68.6,29.83,ESE,112,2.7,-999.0,83,-99.99,,,0.00,Acu-Link.com,2013-09-08 01:17:00,
2013-09-07 20:32:00,73.9,68.4,29.83,SSE,157,1.7,-999.0,83,-99.99,,,0.00,Acu-Link.com,2013-09-08 01:32:00,
2013-09-07 20:47:00,73.6,68.1,29.84,SSE,157,1.7,-999.0,83,-99.99,,,0.00,Acu-Link.com,2013-09-08 01:47:00,
2013-09-07 21:03:00,73.0,67.5,29.85,South,180,0.0,-999.0,83,-99.99,,,0.00,Acu-Link.com,2013-09-08 02:03:00,
2013-09-07 21:18:00,72.3,66.8,29.85,South,180,0.0,-999.0,83,-99.99,,,0.00,Acu-Link.com,2013-09-08 02:18:00,
2013-09-07 21:33:00,72.3,66.8,29.85,NNW,337,3.2,-999.0,83,-99.99,,,0.00,Acu-Link.com,2013-09-08 02:33:00,
2013-09-07 21:49:00,72.1,67.0,29.86,NE,45,0.0,-999.0,84,-99.99,,,0.00,Acu-Link.com,2013-09-08 02:49:00,
2013-09-07 22:04:00,72.1,67.3,29.86,NNW,337,0.0,-999.0,85,-99.99,,,0.00,Acu-Link.com,2013-09-08 03:04:00,
2013-09-07 22:19:00,72.1,67.0,29.87,NW,315,2.2,-999.0,84,-99.99,,,0.00,Acu-Link.com,2013-09-08 03:19:00,
2013-09-07 22:34:00,72.1,67.0,29.88,WNW,292,2.2,-999.0,84,-99.99,,,0.00,Acu-Link.com,2013-09-08 03:34:00,
2013-09-07 22:50:00,72.1,66.6,29.88,NNW,337,0.0,-999.0,83,-99.99,,,0.00,Acu-Link.com,2013-09-08 03:50:00,
2013-09-07 23:05:00,72.1,66.3,29.88,NW,315,2.2,-999.0,82,-99.99,,,0.00,Acu-Link.com,2013-09-08 04:05:00,
2013-09-07 23:20:00,72.1,66.3,29.89,NNW,337,1.1,-999.0,82,-99.99,,,0.00,Acu-Link.com,2013-09-08 04:20:00,
2013-09-07 23:36:00,71.8,66.0,29.88,NNW,337,0.0,-999.0,82,-99.99,,,0.00,Acu-Link.com,2013-09-08 04:36:00,
2013-09-07 23:51:00,71.2,65.4,29.89,NNW,337,1.7,-999.0,82,-99.99,,,0.00,Acu-Link.com,2013-09-08 04:51:00,